createdAt,value
2023-03-10T00:00:49.004Z,100808.41
2023-03-10T00:05:52.202Z,100814.41
2023-03-10T00:10:56.845Z,100830.66
2023-03-10T00:16:00.110Z,100821.13
2023-03-10T00:21:03.387Z,100830.84
2023-03-10T00:26:08.314Z,100827.28
2023-03-10T00:31:12.766Z,100818.91
2023-03-10T00:36:17.890Z,100830.94
2023-03-10T00:41:24.327Z,100835.25
2023-03-10T00:46:28.244Z,100842.63
2023-03-10T00:51:31.489Z,100843.66
2023-03-10T00:56:36.064Z,100845.47
2023-03-10T01:01:41.473Z,100837.06
2023-03-10T01:06:47.635Z,100842.56
2023-03-10T01:11:52.244Z,100849.59
2023-03-10T01:16:55.405Z,100863.94
2023-03-10T01:21:58.592Z,100861.56
2023-03-10T01:27:03.177Z,100858.97
2023-03-10T01:32:07.078Z,100861.50
2023-03-10T01:37:10.250Z,100858.00
2023-03-10T01:42:14.816Z,100867.81
2023-03-10T01:47:17.967Z,100863.50
2023-03-10T01:52:24.591Z,100863.44
2023-03-10T01:57:33.672Z,100862.13
2023-03-10T02:02:38.901Z,100871.13
2023-03-10T02:07:44.453Z,100861.72
2023-03-10T02:12:49.005Z,100862.59
2023-03-10T02:17:54.623Z,100863.75
2023-03-10T02:22:57.786Z,100859.94
2023-03-10T02:28:02.491Z,100859.00
2023-03-10T02:33:09.104Z,100862.53
2023-03-10T02:38:12.295Z,100867.81
2023-03-10T02:43:20.213Z,100876.56
2023-03-10T02:48:28.344Z,100866.16
2023-03-10T02:53:31.848Z,100868.91
2023-03-10T02:58:37.739Z,100868.19
2023-03-10T03:03:41.245Z,100863.59
2023-03-10T03:08:44.461Z,100863.75
2023-03-10T03:13:49.063Z,100872.69
2023-03-10T03:18:52.212Z,100865.88
2023-03-10T03:23:55.464Z,100875.34
2023-03-10T03:29:00.450Z,100868.31
2023-03-10T03:34:04.579Z,100873.47
2023-03-10T03:39:07.767Z,100859.75
2023-03-10T03:44:12.311Z,100865.94
2023-03-10T03:49:15.452Z,100876.69
2023-03-10T03:54:18.558Z,100888.09
2023-03-10T03:59:23.192Z,100892.50
2023-03-10T04:04:26.356Z,100886.41
2023-03-10T04:09:30.192Z,100884.88
2023-03-10T04:14:36.010Z,100876.31
2023-03-10T04:19:39.126Z,100883.28
2023-03-10T04:24:42.270Z,100898.94
2023-03-10T04:29:46.799Z,100893.72
2023-03-10T04:34:49.972Z,100896.03
2023-03-10T04:39:53.086Z,100897.63
2023-03-10T04:44:57.772Z,100896.19
2023-03-10T04:50:00.913Z,100885.63
2023-03-10T04:55:04.243Z,100891.00
2023-03-10T05:00:12.662Z,100901.31
2023-03-10T05:05:15.953Z,100907.00
2023-03-10T05:10:19.436Z,100912.66
2023-03-10T05:15:24.105Z,100922.91
2023-03-10T05:20:27.288Z,100935.94
2023-03-10T05:25:30.726Z,100939.94
2023-03-10T05:30:35.296Z,100952.06
2023-03-10T05:35:39.163Z,100940.16
2023-03-10T05:40:43.186Z,100938.44
2023-03-10T05:45:56.378Z,100934.66
2023-03-10T05:51:01.064Z,100931.91
2023-03-10T05:56:07.607Z,100922.78
2023-03-10T06:01:12.312Z,100925.88
2023-03-10T06:06:15.460Z,100925.75
2023-03-10T06:11:18.623Z,100940.25
2023-03-10T06:16:23.411Z,100941.59
2023-03-10T06:21:28.422Z,100948.31
2023-03-10T06:26:31.306Z,100960.63
2023-03-10T06:31:36.469Z,100962.56
2023-03-10T06:36:40.548Z,100971.63
2023-03-10T06:41:43.727Z,100991.69
2023-03-10T06:46:48.556Z,100998.03
2023-03-10T06:51:51.724Z,100999.00
2023-03-10T06:56:54.924Z,100997.03
2023-03-10T07:01:59.517Z,100997.03
2023-03-10T07:07:02.640Z,101003.97
2023-03-10T07:12:06.406Z,101006.41
2023-03-10T07:17:11.062Z,101016.03
2023-03-10T07:22:14.226Z,101011.31
2023-03-10T07:27:17.412Z,101022.34
2023-03-10T07:32:21.965Z,101022.28
2023-03-10T07:37:25.161Z,101025.88
2023-03-10T07:42:28.390Z,101020.28
2023-03-10T07:47:33.172Z,101031.44
2023-03-10T07:52:36.336Z,101034.63
2023-03-10T07:57:39.472Z,101040.88
2023-03-10T08:02:44.400Z,101043.84
2023-03-10T08:07:47.271Z,101047.41
2023-03-10T08:12:50.414Z,101060.44
2023-03-10T08:17:55.002Z,101067.34
2023-03-10T08:22:58.151Z,101075.28
2023-03-10T08:28:01.310Z,101071.03
2023-03-10T08:33:07.771Z,101062.81
2023-03-10T08:38:10.968Z,101050.09
2023-03-10T08:43:14.104Z,101071.13
2023-03-10T08:48:18.647Z,101088.81
2023-03-10T08:53:21.824Z,101100.78
2023-03-10T08:58:24.968Z,101114.44
2023-03-10T09:03:31.569Z,101133.44
2023-03-10T09:08:35.302Z,101142.84
2023-03-10T09:13:39.447Z,101132.00
2023-03-10T09:18:44.398Z,101127.22
2023-03-10T09:23:50.174Z,101129.47
2023-03-10T09:28:56.760Z,101111.81
2023-03-10T09:34:01.924Z,101128.19
2023-03-10T09:39:05.914Z,101138.81
2023-03-10T09:44:25.334Z,101128.25
2023-03-10T09:49:34.905Z,101131.59
2023-03-10T09:54:47.068Z,101125.91
2023-03-10T09:59:53.936Z,101145.31
2023-03-10T10:05:04.043Z,101158.56
2023-03-10T10:10:14.381Z,101155.56
2023-03-10T10:15:21.432Z,101166.03
2023-03-10T10:20:30.155Z,101166.91
2023-03-10T10:25:33.865Z,101182.41
2023-03-10T10:30:38.901Z,101186.50
2023-03-10T10:35:46.357Z,101190.63
2023-03-10T10:40:51.419Z,101183.50
2023-03-10T10:45:56.366Z,101188.91
2023-03-10T10:51:00.936Z,101178.34
2023-03-10T10:56:05.976Z,101170.38
2023-03-10T11:01:12.767Z,101158.31
2023-03-10T11:06:27.275Z,101155.75
2023-03-10T11:11:37.141Z,101164.66
2023-03-10T11:16:50.126Z,101165.41
2023-03-10T11:22:00.688Z,101163.94
2023-03-10T11:27:10.548Z,101155.44
2023-03-10T11:32:22.071Z,101165.16
2023-03-10T11:37:34.342Z,101168.38
2023-03-10T11:42:44.324Z,101174.69
2023-03-10T11:47:58.350Z,101171.50
2023-03-10T11:53:07.932Z,101198.00
2023-03-10T11:58:22.416Z,101184.25
2023-03-10T12:03:30.021Z,101180.59
2023-03-10T12:08:36.349Z,101190.91
2023-03-10T12:13:46.068Z,101203.38
2023-03-10T12:18:49.687Z,101212.69
2023-03-10T12:23:56.062Z,101216.66
2023-03-10T12:29:25.396Z,101224.59
2023-03-10T12:34:31.730Z,101234.38
2023-03-10T12:39:41.896Z,101226.72
2023-03-10T12:44:51.883Z,101227.28
2023-03-10T12:49:59.355Z,101216.50
2023-03-10T12:55:24.300Z,101187.94
2023-03-10T13:00:36.717Z,101187.44
2023-03-10T13:05:42.884Z,101168.19
2023-03-10T13:10:47.838Z,101177.84
2023-03-10T13:15:59.404Z,101161.84
2023-03-10T13:21:02.702Z,101151.56
2023-03-10T13:26:09.310Z,101145.78
2023-03-10T13:31:20.711Z,101148.72
2023-03-10T13:36:31.473Z,101125.97
2023-03-10T13:41:37.687Z,101119.50
2023-03-10T13:46:40.921Z,101115.59
2023-03-10T13:51:54.534Z,101098.03
2023-03-10T13:57:03.202Z,101108.53
2023-03-10T14:02:14.759Z,101122.41
2023-03-10T14:07:19.738Z,101121.00
2023-03-10T14:12:38.709Z,101128.97
2023-03-10T14:17:43.289Z,101139.91
2023-03-10T14:22:46.516Z,101151.63
2023-03-10T14:27:56.288Z,101148.88
2023-03-10T14:33:02.054Z,101146.09
2023-03-10T14:38:05.286Z,101153.34
2023-03-10T14:43:16.929Z,101150.38
2023-03-10T14:48:23.247Z,101151.06
2023-03-10T14:53:28.355Z,101142.56
2023-03-10T14:58:34.812Z,101153.69
2023-03-10T15:03:37.968Z,101157.81
2023-03-10T15:08:41.400Z,101163.50
2023-03-10T15:13:46.061Z,101155.78
2023-03-10T15:18:49.396Z,101175.84
2023-03-10T15:23:52.587Z,101180.78
2023-03-10T15:28:57.151Z,101180.03
2023-03-10T15:34:00.008Z,101174.97
2023-03-10T15:39:03.448Z,101182.97
2023-03-10T15:44:08.768Z,101194.88
2023-03-10T15:49:11.870Z,101193.66
2023-03-10T15:54:15.009Z,101190.84
2023-03-10T15:59:20.791Z,101197.53
2023-03-10T16:04:24.215Z,101179.09
2023-03-10T16:09:27.422Z,101175.16
2023-03-10T16:14:32.163Z,101172.31
2023-03-10T16:19:35.365Z,101165.94
2023-03-10T16:24:38.493Z,101163.13
2023-03-10T16:29:43.291Z,101170.88
2023-03-10T16:34:46.703Z,101181.63
2023-03-10T16:39:49.872Z,101182.97
2023-03-10T16:44:56.857Z,101183.22
2023-03-10T16:50:00.306Z,101187.44
2023-03-10T16:55:05.214Z,101181.94
2023-03-10T17:00:12.327Z,101184.16
2023-03-10T17:05:15.690Z,101192.03
2023-03-10T17:10:19.037Z,101193.31
2023-03-10T17:15:23.606Z,101186.25
2023-03-10T17:20:27.172Z,101181.63
2023-03-10T17:25:30.358Z,101184.19
2023-03-10T17:30:35.025Z,101176.75
2023-03-10T17:35:38.878Z,101174.66
2023-03-10T17:40:42.900Z,101183.16
2023-03-10T17:45:57.086Z,101180.75
2023-03-10T17:51:00.546Z,101178.09
2023-03-10T17:56:07.979Z,101183.72
2023-03-10T18:01:15.046Z,101178.63
2023-03-10T18:06:20.749Z,101167.13
2023-03-10T18:11:24.631Z,101168.75
2023-03-10T18:16:32.704Z,101160.16
2023-03-10T18:21:35.939Z,101170.03
2023-03-10T18:26:43.387Z,101173.00
2023-03-10T18:31:47.964Z,101160.97
2023-03-10T18:36:52.016Z,101146.25
2023-03-10T18:41:55.332Z,101150.97
2023-03-10T18:46:59.887Z,101146.09
2023-03-10T18:52:03.040Z,101148.69
2023-03-10T18:57:06.304Z,101150.97
2023-03-10T19:02:15.137Z,101162.53
2023-03-10T19:07:20.499Z,101163.47
2023-03-10T19:12:25.000Z,101171.47
2023-03-10T19:17:29.573Z,101172.25
2023-03-10T19:22:34.974Z,101175.44
2023-03-10T19:27:40.443Z,101184.44
2023-03-10T19:32:45.400Z,101171.13
2023-03-10T19:37:48.515Z,101163.41
2023-03-10T19:42:51.835Z,101174.34
2023-03-10T19:47:58.000Z,101188.91
2023-03-10T19:53:01.151Z,101192.75
2023-03-10T19:58:04.317Z,101200.56
2023-03-10T20:03:08.977Z,101196.25
2023-03-10T20:08:11.877Z,101198.38
2023-03-10T20:13:15.159Z,101195.81
2023-03-10T20:18:21.234Z,101201.28
2023-03-10T20:23:24.722Z,101203.69
2023-03-10T20:28:27.870Z,101216.00
2023-03-10T20:33:32.780Z,101194.06
2023-03-10T20:38:36.009Z,101201.28
2023-03-10T20:43:39.207Z,101211.44
2023-03-10T20:48:43.766Z,101210.34
2023-03-10T20:53:46.976Z,101220.63
2023-03-10T20:58:50.159Z,101235.19
2023-03-10T21:03:54.975Z,101237.91
2023-03-10T21:08:58.180Z,101233.38
2023-03-10T21:14:01.359Z,101232.47
2023-03-10T21:19:06.781Z,101228.69
2023-03-10T21:24:10.347Z,101237.47
2023-03-10T21:29:13.568Z,101224.63
2023-03-10T21:34:18.115Z,101234.97
2023-03-10T21:39:21.465Z,101223.47
2023-03-10T21:44:24.651Z,101234.88
2023-03-10T21:49:29.148Z,101244.81
2023-03-10T21:54:32.345Z,101242.59
2023-03-10T21:59:35.480Z,101231.41
2023-03-10T22:04:40.376Z,101237.47
2023-03-10T22:09:43.867Z,101244.44
2023-03-10T22:14:47.699Z,101232.25
2023-03-10T22:19:54.901Z,101220.59
2023-03-10T22:24:58.347Z,101220.44
2023-03-10T22:30:01.781Z,101217.00
2023-03-10T22:35:07.511Z,101221.38
2023-03-10T22:40:16.313Z,101223.00
2023-03-10T22:45:21.670Z,101208.81
2023-03-10T22:50:28.167Z,101214.19
2023-03-10T22:55:35.706Z,101210.00
2023-03-10T23:00:40.626Z,101220.16
2023-03-10T23:05:46.163Z,101209.81
2023-03-10T23:10:49.358Z,101199.13
2023-03-10T23:15:52.747Z,101193.81
2023-03-10T23:20:57.442Z,101205.25
2023-03-10T23:26:00.945Z,101203.38
2023-03-10T23:31:04.598Z,101203.47
2023-03-10T23:36:11.832Z,101199.53
2023-03-10T23:41:15.317Z,101205.00
2023-03-10T23:46:18.568Z,101194.09
2023-03-10T23:51:23.134Z,101192.59
2023-03-10T23:56:26.288Z,101202.91
